createdAt,value
2018-04-08T00:00:23.123Z,79.57
2018-04-08T00:01:23.021Z,79.57
2018-04-08T00:02:23.359Z,79.85
2018-04-08T00:03:23.050Z,79.85
2018-04-08T00:04:22.929Z,80.33
2018-04-08T00:05:22.918Z,80.23
2018-04-08T00:06:22.899Z,80.76
2018-04-08T00:07:22.954Z,80.19
2018-04-08T00:09:23.199Z,81.05
2018-04-08T00:10:22.892Z,81.52
2018-04-08T00:11:22.987Z,82.09
2018-04-08T00:12:23.151Z,82.57
2018-04-08T00:13:22.784Z,82.38
2018-04-08T00:14:22.771Z,82.76
2018-04-08T00:15:23.051Z,82.86
2018-04-08T00:16:22.735Z,82.95
2018-04-08T00:17:22.719Z,82.86
2018-04-08T00:18:22.806Z,83.52
2018-04-08T00:19:22.688Z,83.95
2018-04-08T00:20:22.666Z,83.42
2018-04-08T00:21:23.024Z,83.62
2018-04-08T00:22:22.781Z,83.81
2018-04-08T00:23:22.689Z,83.42
2018-04-08T00:24:23.051Z,83.52
2018-04-08T00:25:22.774Z,83.04
2018-04-08T00:26:22.618Z,82.76
2018-04-08T00:27:23.545Z,82.48
2018-04-08T00:28:23.330Z,82.48
2018-04-08T00:29:22.543Z,82.76
2018-04-08T00:30:22.560Z,82.95
2018-04-08T00:31:22.489Z,82.86
2018-04-08T00:32:22.474Z,83.52
2018-04-08T00:33:22.457Z,82.95
2018-04-08T00:34:22.736Z,83.42
2018-04-08T00:35:22.420Z,83.23
2018-04-08T00:36:22.453Z,83.33
2018-04-08T00:37:22.389Z,83.42
2018-04-08T00:38:22.372Z,83.23
2018-04-08T00:39:22.355Z,83.90
2018-04-08T00:40:22.343Z,83.81
2018-04-08T00:41:22.671Z,83.90
2018-04-08T00:42:22.306Z,83.62
2018-04-08T00:43:22.280Z,84.05
2018-04-08T00:44:22.715Z,84.09
2018-04-08T00:45:22.489Z,84.72
2018-04-08T00:46:22.247Z,84.33
2018-04-08T00:47:22.652Z,84.91
2018-04-08T00:48:22.657Z,84.62
2018-04-08T00:49:22.295Z,84.62
2018-04-08T00:50:22.175Z,84.62
2018-04-08T00:51:22.159Z,83.95
2018-04-08T00:52:22.139Z,84.72
2018-04-08T00:53:22.170Z,84.52
2018-04-08T00:54:22.153Z,85.00
2018-04-08T00:55:22.387Z,85.19
2018-04-08T00:56:22.370Z,85.28
2018-04-08T00:57:22.054Z,85.00
2018-04-08T00:58:22.110Z,85.19
2018-04-08T00:59:22.171Z,85.47
2018-04-08T01:00:22.202Z,85.10
2018-04-08T01:01:22.636Z,85.28
2018-04-08T01:02:22.270Z,85.28
2018-04-08T01:03:21.956Z,85.19
2018-04-08T01:04:21.938Z,86.05
2018-04-08T01:06:21.895Z,86.05
2018-04-08T01:07:21.882Z,86.52
2018-04-08T01:08:21.865Z,86.43
2018-04-08T01:09:22.294Z,86.24
2018-04-08T01:10:22.323Z,86.80
2018-04-08T01:11:22.164Z,86.33
2018-04-08T01:12:21.803Z,86.43
2018-04-08T01:13:22.124Z,86.05
2018-04-08T01:14:21.763Z,85.76
2018-04-08T01:15:21.859Z,86.05
2018-04-08T01:16:22.524Z,86.24
2018-04-08T01:17:21.809Z,85.95
2018-04-08T01:18:21.715Z,86.71
2018-04-08T01:19:21.681Z,86.80
2018-04-08T01:20:21.716Z,86.71
2018-04-08T01:21:21.754Z,86.80
2018-04-08T01:22:22.029Z,87.47
2018-04-08T01:23:21.745Z,87.66
2018-04-08T01:24:21.599Z,88.04
2018-04-08T01:25:21.681Z,87.95
2018-04-08T01:26:21.565Z,88.28
2018-04-08T01:27:21.548Z,88.67
2018-04-08T01:28:21.880Z,88.52
2018-04-08T01:29:21.515Z,88.52
2018-04-08T01:30:21.500Z,88.85
2018-04-08T01:31:21.535Z,88.85
2018-04-08T01:32:21.514Z,88.67
2018-04-08T01:33:21.498Z,89.04
2018-04-08T01:34:21.723Z,89.52
2018-04-08T01:36:21.493Z,89.14
2018-04-08T01:37:21.377Z,89.61
2018-04-08T01:38:21.460Z,89.90
2018-04-08T01:39:21.343Z,90.09
2018-04-08T01:40:21.623Z,90.47
2018-04-08T01:41:21.421Z,89.90
2018-04-08T01:42:21.468Z,90.28
2018-04-08T01:43:21.275Z,90.28
2018-04-08T01:44:21.758Z,90.00
2018-04-08T01:45:21.368Z,90.00
2018-04-08T01:46:21.569Z,90.28
2018-04-08T01:47:21.278Z,89.61
2018-04-08T01:48:21.579Z,90.00
2018-04-08T01:49:21.225Z,89.90
2018-04-08T01:50:21.210Z,89.33
2018-04-08T01:51:21.138Z,88.95
2018-04-08T01:52:21.420Z,89.04
2018-04-08T01:53:21.101Z,88.76
2018-04-08T01:54:21.134Z,89.04
2018-04-08T01:55:21.167Z,88.85
2018-04-08T01:56:21.127Z,88.76
2018-04-08T01:57:21.115Z,88.95
2018-04-08T01:58:21.314Z,88.95
2018-04-08T01:59:21.347Z,89.04
2018-04-08T02:00:20.982Z,89.04
2018-04-08T02:01:20.968Z,89.80
2018-04-08T02:02:20.959Z,90.47
2018-04-08T02:03:21.036Z,90.56
2018-04-08T02:04:20.911Z,90.00
2018-04-08T02:05:21.292Z,90.28
2018-04-08T02:06:20.978Z,90.09
2018-04-08T02:07:20.908Z,90.19
2018-04-08T02:08:20.895Z,90.75
2018-04-08T02:09:20.835Z,90.66
2018-04-08T02:10:20.819Z,90.85
2018-04-08T02:11:21.141Z,91.33
2018-04-08T02:12:21.074Z,91.28
2018-04-08T02:13:20.760Z,91.56
2018-04-08T02:14:20.754Z,91.19
2018-04-08T02:15:20.712Z,91.28
2018-04-08T02:16:20.753Z,92.08
2018-04-08T02:17:21.027Z,91.94
2018-04-08T02:18:21.273Z,91.38
2018-04-08T02:19:20.950Z,91.94
2018-04-08T02:20:20.688Z,91.85
2018-04-08T02:21:20.665Z,91.47
2018-04-08T02:22:20.648Z,91.75
2018-04-08T02:23:20.864Z,91.75
2018-04-08T02:24:20.866Z,92.32
2018-04-08T02:25:20.546Z,92.23
2018-04-08T02:26:20.899Z,91.66
2018-04-08T02:27:20.604Z,91.94
2018-04-08T02:28:20.603Z,91.38
2018-04-08T02:29:20.927Z,91.56
2018-04-08T02:30:20.463Z,91.66
2018-04-08T02:31:20.439Z,91.85
2018-04-08T02:32:20.432Z,91.56
2018-04-08T02:33:20.703Z,91.19
2018-04-08T02:34:20.386Z,91.19
2018-04-08T02:35:20.473Z,92.04
2018-04-08T02:36:20.399Z,92.61
2018-04-08T02:37:20.325Z,92.42
2018-04-08T02:38:20.676Z,92.04
2018-04-08T02:39:20.652Z,92.32
2018-04-08T02:40:20.627Z,92.13
2018-04-08T02:41:20.269Z,92.42
2018-04-08T02:42:20.349Z,92.80
2018-04-08T02:43:20.321Z,92.42
2018-04-08T02:44:20.205Z,93.56
2018-04-08T02:45:20.400Z,92.90
2018-04-08T02:46:20.166Z,92.61
2018-04-08T02:47:20.515Z,93.46
2018-04-08T02:48:20.340Z,92.99
2018-04-08T02:50:20.203Z,93.18
2018-04-08T02:51:20.082Z,92.90
2018-04-08T02:52:20.056Z,93.56
2018-04-08T02:53:20.396Z,93.94
2018-04-08T02:54:20.029Z,93.18
2018-04-08T02:55:20.108Z,93.56
2018-04-08T02:56:20.099Z,93.37
2018-04-08T02:57:20.071Z,93.37
2018-04-08T02:58:20.051Z,93.27
2018-04-08T02:59:20.336Z,93.56
2018-04-08T03:00:20.020Z,93.65
2018-04-08T03:01:19.909Z,94.13
2018-04-08T03:02:19.981Z,93.65
2018-04-08T03:03:19.864Z,94.23
2018-04-08T03:04:19.853Z,94.23
2018-04-08T03:05:20.144Z,94.70
2018-04-08T03:06:19.814Z,94.70
2018-04-08T03:07:19.856Z,94.70
2018-04-08T03:08:19.829Z,94.98
2018-04-08T03:09:19.757Z,95.08
2018-04-08T03:11:20.016Z,95.08
2018-04-08T03:12:19.694Z,94.70
2018-04-08T03:13:19.835Z,94.79
2018-04-08T03:14:19.788Z,94.51
2018-04-08T03:15:19.721Z,94.42
2018-04-08T03:16:19.840Z,93.65
2018-04-08T03:17:19.971Z,93.56
2018-04-08T03:18:19.664Z,94.51
2018-04-08T03:19:19.620Z,94.98
2018-04-08T03:20:19.552Z,95.84
2018-04-08T03:21:19.543Z,95.46
2018-04-08T03:22:19.520Z,95.08
2018-04-08T03:23:19.922Z,95.27
2018-04-08T03:24:19.583Z,95.17
2018-04-08T03:25:19.567Z,94.98
2018-04-08T03:26:19.573Z,94.98
2018-04-08T03:27:19.449Z,95.08
2018-04-08T03:28:19.707Z,95.36
2018-04-08T03:29:19.405Z,95.08
2018-04-08T03:30:20.020Z,95.03
2018-04-08T03:31:19.358Z,95.70
2018-04-08T03:32:19.340Z,95.94
2018-04-08T03:33:19.321Z,95.22
2018-04-08T03:34:19.309Z,94.89
2018-04-08T03:35:19.284Z,95.03
2018-04-08T03:36:19.320Z,94.84
2018-04-08T03:37:19.547Z,94.74
2018-04-08T03:38:19.232Z,94.84
2018-04-08T03:39:19.213Z,94.93
2018-04-08T03:40:19.194Z,95.12
2018-04-08T03:41:19.225Z,95.12
2018-04-08T03:42:19.163Z,95.12
2018-04-08T03:43:19.172Z,95.89
2018-04-08T03:44:19.421Z,96.08
2018-04-08T03:45:19.103Z,96.17
2018-04-08T03:46:19.086Z,95.98
2018-04-08T03:47:19.123Z,97.02
2018-04-08T03:48:19.046Z,96.08
2018-04-08T03:49:19.032Z,96.17
2018-04-08T03:50:19.010Z,96.08
2018-04-08T03:51:19.293Z,96.26
2018-04-08T03:52:18.971Z,96.93
2018-04-08T03:53:19.056Z,96.74
2018-04-08T03:54:18.936Z,96.74
2018-04-08T03:55:18.918Z,96.83
2018-04-08T03:56:18.917Z,97.60
2018-04-08T03:57:18.980Z,97.12
2018-04-08T03:58:19.164Z,97.22
2018-04-08T03:59:18.897Z,97.41
2018-04-08T04:00:18.828Z,97.02
2018-04-08T04:01:18.810Z,96.83
2018-04-08T04:02:18.792Z,97.41
2018-04-08T04:03:18.809Z,97.22
2018-04-08T04:04:18.756Z,97.41
2018-04-08T04:05:19.091Z,97.12
2018-04-08T04:06:18.716Z,96.93
2018-04-08T04:07:18.703Z,97.69
2018-04-08T04:08:18.680Z,97.02
2018-04-08T04:09:18.665Z,97.45
2018-04-08T04:10:18.647Z,97.26
2018-04-08T04:11:18.695Z,98.26
2018-04-08T04:12:18.906Z,98.49
2018-04-08T04:13:18.587Z,98.64
2018-04-08T04:14:18.572Z,98.59
2018-04-08T04:15:18.600Z,98.78
2018-04-08T04:16:18.531Z,98.59
2018-04-08T04:17:18.612Z,98.68
2018-04-08T04:18:18.801Z,98.92
2018-04-08T04:19:18.492Z,98.83
2018-04-08T04:20:18.507Z,98.54
2018-04-08T04:21:18.496Z,99.49
2018-04-08T04:22:18.421Z,98.92
2018-04-08T04:23:18.407Z,98.35
2018-04-08T04:24:18.690Z,98.35
2018-04-08T04:26:18.345Z,98.49
2018-04-08T04:27:18.348Z,98.45
2018-04-08T04:28:18.307Z,97.83
2018-04-08T04:29:18.290Z,97.78
2018-04-08T04:30:18.576Z,98.59
2018-04-08T04:31:18.403Z,98.30
2018-04-08T04:32:18.436Z,98.68
2018-04-08T04:33:18.207Z,98.49
2018-04-08T04:34:18.188Z,98.30
2018-04-08T04:35:18.182Z,98.49
2018-04-08T04:36:18.811Z,98.49
2018-04-08T04:37:18.140Z,98.21
2018-04-08T04:38:18.127Z,98.11
2018-04-08T04:39:18.139Z,98.49
2018-04-08T04:40:18.085Z,98.49
2018-04-08T04:41:18.066Z,98.21
2018-04-08T04:42:18.452Z,98.87
2018-04-08T04:43:18.032Z,98.59
2018-04-08T04:44:18.011Z,98.78
2018-04-08T04:45:18.045Z,98.49
2018-04-08T04:46:23.242Z,98.87
2018-04-08T04:47:17.954Z,98.87
2018-04-08T04:48:18.290Z,98.78
2018-04-08T04:49:17.996Z,98.40
2018-04-08T04:50:17.903Z,98.40
2018-04-08T04:51:17.935Z,98.68
2018-04-08T04:52:17.858Z,98.59
2018-04-08T04:53:17.892Z,98.68
2018-04-08T04:54:18.171Z,98.68
2018-04-08T04:55:17.804Z,98.87
2018-04-08T04:56:17.781Z,98.97
2018-04-08T04:57:17.768Z,98.59
2018-04-08T04:58:17.747Z,98.59
2018-04-08T04:59:17.830Z,99.06
2018-04-08T05:00:17.705Z,99.35
2018-04-08T05:01:17.987Z,99.35
2018-04-08T05:02:17.670Z,99.82
2018-04-08T05:03:17.761Z,99.99
2018-04-08T05:04:17.684Z,99.63
2018-04-08T05:05:17.715Z,99.97
2018-04-08T05:06:17.701Z,99.58
2018-04-08T05:07:17.575Z,99.97
2018-04-08T05:08:17.952Z,99.87
2018-04-08T05:09:17.638Z,99.99
2018-04-08T05:10:17.620Z,99.68
2018-04-08T05:11:17.655Z,99.97
2018-04-08T05:12:17.654Z,99.97
2018-04-08T05:13:17.463Z,99.58
2018-04-08T05:14:17.834Z,99.49
2018-04-08T05:15:17.756Z,99.49
2018-04-08T05:16:18.134Z,99.97
2018-04-08T05:17:17.391Z,99.30
2018-04-08T05:18:18.002Z,99.11
2018-04-08T05:20:17.407Z,99.30
2018-04-08T05:21:17.323Z,99.40
2018-04-08T05:23:17.581Z,99.21
2018-04-08T05:24:17.307Z,98.83
2018-04-08T05:25:17.549Z,99.11
2018-04-08T05:26:17.216Z,99.40
2018-04-08T05:27:17.378Z,99.49
2018-04-08T05:28:17.438Z,99.21
2018-04-08T05:29:17.226Z,98.73
2018-04-08T05:30:17.755Z,98.45
2018-04-08T05:31:17.133Z,98.73
2018-04-08T05:32:17.133Z,99.02
2018-04-08T05:33:17.092Z,98.73
2018-04-08T05:34:17.078Z,98.45
2018-04-08T05:35:17.047Z,98.35
2018-04-08T05:36:17.374Z,98.64
2018-04-08T05:37:17.307Z,98.35
2018-04-08T05:38:17.000Z,98.16
2018-04-08T05:39:16.997Z,98.07
2018-04-08T05:40:17.004Z,98.45
2018-04-08T05:41:16.945Z,98.50
2018-04-08T05:42:16.989Z,97.83
2018-04-08T05:43:17.209Z,98.40
2018-04-08T05:44:16.884Z,97.97
2018-04-08T05:45:16.924Z,97.83
2018-04-08T05:46:16.870Z,98.69
2018-04-08T05:47:16.879Z,98.50
2018-04-08T05:48:16.958Z,98.79
2018-04-08T05:49:17.270Z,98.88
2018-04-08T05:50:16.768Z,98.79
2018-04-08T05:51:16.748Z,98.59
2018-04-08T05:52:16.735Z,99.26
2018-04-08T05:53:16.771Z,99.59
2018-04-08T05:54:16.859Z,99.97
2018-04-08T05:55:16.996Z,99.99
2018-04-08T05:56:16.677Z,99.59
2018-04-08T05:57:16.708Z,99.88
2018-04-08T05:58:16.640Z,99.40
2018-04-08T05:59:16.616Z,99.84
2018-04-08T06:00:16.811Z,99.45
2018-04-08T06:01:16.999Z,99.26
2018-04-08T06:02:22.847Z,98.60
2018-04-08T06:03:16.557Z,98.41
2018-04-08T06:04:16.604Z,98.31
2018-04-08T06:05:16.555Z,98.12
2018-04-08T06:06:16.573Z,97.31
2018-04-08T06:07:17.467Z,97.22
2018-04-08T06:08:16.456Z,96.74
2018-04-08T06:09:16.703Z,96.84
2018-04-08T06:10:16.486Z,96.36
2018-04-08T06:11:16.555Z,95.98
2018-04-08T06:12:16.380Z,95.70
2018-04-08T06:13:16.765Z,96.08
2018-04-08T06:14:16.646Z,95.79
2018-04-08T06:15:16.346Z,95.60
2018-04-08T06:16:16.325Z,94.89
2018-04-08T06:17:16.403Z,94.89
2018-04-08T06:18:16.286Z,94.70
2018-04-08T06:19:16.569Z,94.42
2018-04-08T06:20:16.308Z,94.13
2018-04-08T06:21:16.235Z,93.37
2018-04-08T06:22:16.219Z,93.74
2018-04-08T06:23:16.263Z,92.99
2018-04-08T06:24:16.189Z,92.99
2018-04-08T06:25:16.165Z,92.18
2018-04-08T06:26:16.444Z,92.27
2018-04-08T06:27:16.141Z,91.89
2018-04-08T06:28:16.166Z,91.99
2018-04-08T06:29:16.155Z,91.60
2018-04-08T06:32:16.160Z,91.41
2018-04-08T06:33:16.747Z,90.12
2018-04-08T06:35:16.103Z,89.55
2018-04-08T06:36:16.048Z,89.55
2018-04-08T06:38:15.967Z,88.89
2018-04-08T06:39:16.565Z,88.51
2018-04-08T06:40:16.397Z,88.31
2018-04-08T06:41:15.910Z,87.50
2018-04-08T06:42:15.876Z,87.98
2018-04-08T06:43:15.860Z,88.17
2018-04-08T06:44:15.845Z,87.60
2018-04-08T06:45:16.182Z,87.79
2018-04-08T06:46:15.816Z,87.50
2018-04-08T06:47:16.097Z,87.54
2018-04-08T06:48:15.779Z,86.69
2018-04-08T06:49:15.817Z,86.11
2018-04-08T06:50:15.756Z,85.06
2018-04-08T06:51:15.894Z,84.49
2018-04-08T06:52:15.719Z,83.64
2018-04-08T06:53:15.703Z,83.83
2018-04-08T06:54:15.988Z,83.73
2018-04-08T06:55:15.675Z,82.72
2018-04-08T06:56:15.761Z,83.06
2018-04-08T06:57:15.745Z,82.91
2018-04-08T06:58:15.713Z,82.43
2018-04-08T06:59:15.701Z,82.43
2018-04-08T07:00:16.009Z,82.43
2018-04-08T07:01:16.292Z,81.77
2018-04-08T07:02:15.973Z,81.90
2018-04-08T07:03:16.052Z,81.43
2018-04-08T07:04:15.924Z,81.43
2018-04-08T07:06:15.524Z,80.09
2018-04-08T07:07:15.882Z,79.71
2018-04-08T07:08:16.633Z,80.47
2018-04-08T07:09:15.656Z,79.08
2018-04-08T07:10:15.900Z,78.31
2018-04-08T07:12:16.075Z,77.08
2018-04-08T07:13:15.807Z,76.98
2018-04-08T07:14:16.292Z,75.87
2018-04-08T07:15:15.780Z,74.05
2018-04-08T07:16:16.301Z,73.58
2018-04-08T07:17:16.140Z,73.48
2018-04-08T07:18:15.352Z,73.19
2018-04-08T07:19:15.351Z,73.04
2018-04-08T07:20:15.620Z,73.14
2018-04-08T07:21:15.308Z,72.94
2018-04-08T07:22:15.290Z,71.03
2018-04-08T07:23:15.375Z,69.98
2018-04-08T07:24:15.277Z,69.79
2018-04-08T07:25:15.419Z,69.06
2018-04-08T07:26:16.008Z,68.49
2018-04-08T07:27:15.400Z,68.49
2018-04-08T07:28:15.204Z,67.21
2018-04-08T07:29:15.249Z,66.00
2018-04-08T07:30:15.180Z,62.62
2018-04-08T07:31:15.709Z,59.86
2018-04-08T07:32:15.653Z,57.97
2018-04-08T07:33:15.816Z,57.14
2018-04-08T07:34:15.205Z,55.89
2018-04-08T07:35:15.272Z,55.24
2018-04-08T07:36:15.203Z,54.60
2018-04-08T07:37:15.168Z,53.19
2018-04-08T07:38:15.375Z,52.03
2018-04-08T07:39:15.120Z,51.93
2018-04-08T07:40:15.103Z,52.12
2018-04-08T07:41:15.039Z,50.90
2018-04-08T07:42:15.116Z,50.35
2018-04-08T07:43:15.037Z,49.84
2018-04-08T07:45:15.379Z,49.29
2018-04-08T07:46:15.365Z,49.38
2018-04-08T07:47:15.023Z,49.00
2018-04-08T07:49:15.024Z,47.19
2018-04-08T07:50:15.299Z,48.54
2018-04-08T07:51:14.994Z,48.23
2018-04-08T07:52:14.919Z,47.56
2018-04-08T07:53:15.127Z,48.13
2018-04-08T07:54:15.061Z,47.19
2018-04-08T07:55:14.989Z,46.71
2018-04-08T07:56:14.880Z,47.03
2018-04-08T07:57:15.171Z,45.97
2018-04-08T07:58:14.862Z,45.70
2018-04-08T07:59:14.987Z,45.77
2018-04-08T08:00:15.223Z,45.70
2018-04-08T08:01:16.018Z,46.08
2018-04-08T08:02:15.819Z,45.31
2018-04-08T08:04:15.242Z,44.73
2018-04-08T08:06:14.900Z,44.54
2018-04-08T08:07:15.454Z,45.03
2018-04-08T08:12:15.164Z,42.97
2018-04-08T08:13:15.058Z,41.88
2018-04-08T08:14:14.795Z,42.36
2018-04-08T08:15:15.004Z,42.08
2018-04-08T08:16:14.824Z,41.50
2018-04-08T08:17:14.826Z,42.27
2018-04-08T08:19:15.063Z,41.23
2018-04-08T08:20:14.736Z,40.75
2018-04-08T08:22:59.639Z,40.44
2018-04-08T08:23:59.457Z,41.42
2018-04-08T08:24:59.528Z,41.63
2018-04-08T08:25:59.438Z,41.83
2018-04-08T08:26:59.437Z,42.24
2018-04-08T08:27:59.731Z,41.85
2018-04-08T08:28:59.467Z,42.47
2018-04-08T08:29:59.398Z,41.52
2018-04-08T08:30:59.455Z,40.25
2018-04-08T08:31:59.399Z,40.44
2018-04-08T08:32:59.558Z,40.44
2018-04-08T08:33:59.521Z,40.53
2018-04-08T08:34:59.431Z,40.44
2018-04-08T08:35:59.372Z,40.75
2018-04-08T08:36:59.499Z,39.59
2018-04-08T08:37:59.354Z,39.01
2018-04-08T08:38:59.343Z,39.47
2018-04-08T08:39:59.361Z,40.25
2018-04-08T08:40:59.853Z,39.86
2018-04-08T08:41:59.633Z,39.36
2018-04-08T08:42:59.324Z,40.53
2018-04-08T08:43:59.318Z,38.89
2018-04-08T08:44:59.678Z,38.28
2018-04-08T08:45:59.304Z,39.39
2018-04-08T08:46:59.504Z,39.53
2018-04-08T08:47:59.299Z,37.73
2018-04-08T08:48:59.302Z,39.97
2018-04-08T08:49:59.308Z,39.59
2018-04-08T08:50:59.574Z,37.92
2018-04-08T08:51:59.273Z,36.74
2018-04-08T08:52:59.430Z,37.26
2018-04-08T08:53:59.274Z,38.15
2018-04-08T08:54:59.405Z,39.51
2018-04-08T08:55:59.980Z,37.73
2018-04-08T08:56:59.268Z,37.34
2018-04-08T08:57:59.344Z,35.72
2018-04-08T08:58:59.289Z,35.44
2018-04-08T08:59:59.225Z,34.88
2018-04-08T09:00:59.224Z,35.25
2018-04-08T09:01:59.224Z,35.78
2018-04-08T09:02:59.222Z,36.28
2018-04-08T09:03:59.307Z,35.99
2018-04-08T09:04:59.262Z,36.16
2018-04-08T09:05:59.266Z,36.55
2018-04-08T09:06:59.281Z,36.49
2018-04-08T09:07:59.210Z,36.88
2018-04-08T09:08:59.206Z,34.86
2018-04-08T09:09:59.255Z,34.57
2018-04-08T09:10:59.238Z,34.65
2018-04-08T09:11:59.942Z,34.96
2018-04-08T09:12:59.190Z,35.54
2018-04-08T09:13:59.583Z,35.27
2018-04-08T09:14:59.184Z,34.30
2018-04-08T09:15:59.318Z,34.20
2018-04-08T09:16:59.234Z,34.11
2018-04-08T09:17:59.164Z,34.17
2018-04-08T09:18:59.259Z,34.45
2018-04-08T09:19:59.531Z,34.20
2018-04-08T09:20:59.210Z,33.51
2018-04-08T09:21:59.395Z,33.69
2018-04-08T09:22:59.522Z,34.27
2018-04-08T09:23:59.260Z,33.87
2018-04-08T09:24:59.263Z,33.29
2018-04-08T09:25:59.145Z,34.15
2018-04-08T09:27:59.219Z,33.87
2018-04-08T09:28:59.178Z,33.97
2018-04-08T09:29:59.128Z,33.57
2018-04-08T09:30:59.123Z,34.13
2018-04-08T09:31:59.440Z,34.25
2018-04-08T09:32:59.122Z,34.71
2018-04-08T09:33:59.170Z,34.05
2018-04-08T09:34:59.173Z,34.04
2018-04-08T09:35:59.111Z,34.05
2018-04-08T09:36:59.108Z,35.49
2018-04-08T09:37:59.418Z,34.99
2018-04-08T09:38:59.113Z,35.00
2018-04-08T09:39:59.101Z,34.70
2018-04-08T09:40:59.155Z,34.79
2018-04-08T09:41:59.099Z,35.47
2018-04-08T09:42:59.095Z,34.52
2018-04-08T09:43:59.460Z,34.17
2018-04-08T09:44:59.215Z,33.78
2018-04-08T09:45:59.080Z,33.29
2018-04-08T09:46:59.282Z,33.41
2018-04-08T09:47:59.082Z,31.86
2018-04-08T09:48:59.092Z,31.94
2018-04-08T09:49:59.382Z,32.64
2018-04-08T09:50:59.085Z,31.89
2018-04-08T09:51:59.113Z,31.50
2018-04-08T09:52:59.115Z,30.54
2018-04-08T09:53:59.267Z,31.44
2018-04-08T09:54:59.109Z,30.48
2018-04-08T09:55:59.379Z,29.71
2018-04-08T09:56:59.062Z,29.79
2018-04-08T09:57:59.063Z,28.91
2018-04-08T09:58:59.113Z,29.41
2018-04-08T09:59:59.070Z,28.81
2018-04-08T10:00:59.069Z,28.34
2018-04-08T10:01:59.085Z,27.57
2018-04-08T10:02:59.301Z,28.05
2018-04-08T10:03:59.086Z,27.76
2018-04-08T10:04:59.200Z,27.93
2018-04-08T10:05:59.411Z,27.54
2018-04-08T10:06:59.097Z,28.61
2018-04-08T10:07:59.373Z,28.90
2018-04-08T10:08:59.074Z,28.53
2018-04-08T10:09:59.047Z,27.48
2018-04-08T10:10:59.194Z,28.55
2018-04-08T10:11:59.851Z,26.62
2018-04-08T10:12:59.050Z,26.62
2018-04-08T10:13:59.363Z,27.58
2018-04-08T10:14:59.055Z,26.14
2018-04-08T10:15:59.061Z,26.62
2018-04-08T10:16:59.198Z,26.90
2018-04-08T10:17:59.048Z,26.62
2018-04-08T10:19:00.975Z,25.57
2018-04-08T10:19:59.038Z,26.39
2018-04-08T10:20:59.034Z,27.75
2018-04-08T10:21:59.058Z,27.96
2018-04-08T10:22:59.173Z,26.71
2018-04-08T10:23:59.039Z,26.42
2018-04-08T10:24:59.344Z,25.04
2018-04-08T10:25:59.229Z,25.63
2018-04-08T10:26:59.140Z,26.00
2018-04-08T10:27:59.042Z,26.57
2018-04-08T10:28:59.167Z,26.67
2018-04-08T10:29:59.056Z,26.70
2018-04-08T10:30:59.341Z,26.61
2018-04-08T10:31:59.069Z,26.90
2018-04-08T10:32:59.050Z,27.48
2018-04-08T10:33:59.088Z,27.70
2018-04-08T10:34:59.125Z,26.75
2018-04-08T10:35:59.054Z,26.94
2018-04-08T10:36:59.352Z,26.57
2018-04-08T10:37:59.157Z,24.33
2018-04-08T10:38:59.182Z,24.87
2018-04-08T10:39:59.093Z,25.65
2018-04-08T10:40:59.158Z,24.79
2018-04-08T10:41:59.112Z,25.65
2018-04-08T10:42:59.417Z,25.75
2018-04-08T10:43:59.062Z,25.82
2018-04-08T10:44:59.072Z,26.70
2018-04-08T10:45:59.120Z,25.53
2018-04-08T10:46:59.119Z,26.76
2018-04-08T10:47:59.065Z,26.96
2018-04-08T10:48:59.358Z,26.70
2018-04-08T10:49:59.055Z,25.73
2018-04-08T10:50:59.102Z,25.82
2018-04-08T10:51:59.064Z,26.03
2018-04-08T10:52:59.114Z,26.82
2018-04-08T10:53:59.088Z,27.42
2018-04-08T10:54:59.389Z,26.84
2018-04-08T10:55:59.069Z,28.61
2018-04-08T10:56:59.078Z,27.33
2018-04-08T10:57:59.085Z,26.90
2018-04-08T10:58:59.131Z,28.26
2018-04-08T10:59:59.097Z,26.90
2018-04-08T11:00:59.395Z,26.64
2018-04-08T11:01:59.084Z,25.37
2018-04-08T11:02:59.130Z,25.57
2018-04-08T11:03:59.081Z,26.76
2018-04-08T11:04:59.258Z,24.93
2018-04-08T11:05:59.156Z,23.07
2018-04-08T11:06:59.395Z,24.74
2018-04-08T11:07:59.094Z,26.18
2018-04-08T11:10:59.147Z,27.95
2018-04-08T11:11:59.087Z,26.41
2018-04-08T11:12:59.412Z,25.82
2018-04-08T11:13:59.249Z,25.45
2018-04-08T11:14:59.096Z,25.64
2018-04-08T11:15:59.101Z,25.71
2018-04-08T11:16:59.276Z,24.80
2018-04-08T11:17:59.248Z,25.68
2018-04-08T11:18:59.410Z,25.60
2018-04-08T11:19:59.116Z,25.51
2018-04-08T11:20:59.126Z,25.92
2018-04-08T11:21:59.313Z,25.92
2018-04-08T11:22:59.374Z,25.54
2018-04-08T11:23:59.123Z,25.84
2018-04-08T11:24:59.432Z,28.08
2018-04-08T11:25:59.227Z,25.36
2018-04-08T11:26:59.142Z,24.77
2018-04-08T11:27:59.204Z,24.76
2018-04-08T11:28:59.207Z,25.34
2018-04-08T11:29:59.132Z,25.59
2018-04-08T11:30:59.444Z,26.55
2018-04-08T11:31:59.162Z,27.04
2018-04-08T11:32:59.218Z,25.48
2018-04-08T11:33:59.173Z,27.16
2018-04-08T11:34:59.333Z,25.89
2018-04-08T11:35:59.183Z,25.59
2018-04-08T11:36:59.266Z,25.51
2018-04-08T11:37:59.202Z,25.58
2018-04-08T11:38:59.281Z,25.69
2018-04-08T11:39:59.219Z,25.29
2018-04-08T11:40:59.515Z,25.79
2018-04-08T11:42:00.079Z,25.02
2018-04-08T11:42:59.476Z,23.93
2018-04-08T11:43:59.180Z,24.12
2018-04-08T11:44:59.185Z,25.46
2018-04-08T11:45:59.267Z,25.57
2018-04-08T11:46:59.238Z,25.37
2018-04-08T11:47:59.227Z,24.80
2018-04-08T11:48:59.492Z,24.85
2018-04-08T11:49:59.206Z,24.07
2018-04-08T11:50:59.203Z,22.66
2018-04-08T11:51:59.193Z,23.93
2018-04-08T11:52:59.246Z,24.88
2018-04-08T11:53:59.978Z,25.74
2018-04-08T11:54:59.509Z,25.65
2018-04-08T11:55:59.207Z,25.54
2018-04-08T11:56:59.225Z,25.74
2018-04-08T11:57:59.254Z,25.58
2018-04-08T11:58:59.263Z,26.65
2018-04-08T11:59:59.324Z,27.23
2018-04-08T12:00:59.518Z,25.80
2018-04-08T12:01:59.273Z,24.15
2018-04-08T12:02:59.274Z,24.06
2018-04-08T12:03:59.233Z,22.79
2018-04-08T12:05:59.284Z,24.21
2018-04-08T12:06:59.343Z,24.40
2018-04-08T12:07:59.266Z,24.61
2018-04-08T12:08:59.295Z,24.48
2018-04-08T12:09:59.254Z,26.70
2018-04-08T12:10:59.255Z,26.72
2018-04-08T12:11:59.350Z,25.09
2018-04-08T12:12:59.564Z,24.52
2018-04-08T12:14:59.296Z,24.71
2018-04-08T12:15:59.403Z,25.45
2018-04-08T12:16:59.259Z,27.19
2018-04-08T12:17:59.330Z,26.62
2018-04-08T12:18:59.562Z,26.55
2018-04-08T12:19:59.266Z,25.90
2018-04-08T12:20:59.274Z,25.12
2018-04-08T12:21:59.264Z,24.76
2018-04-08T12:22:59.334Z,24.26
2018-04-08T12:23:59.572Z,24.23
2018-04-08T12:24:59.571Z,25.76
2018-04-08T12:25:59.287Z,26.28
2018-04-08T12:27:59.297Z,24.95
2018-04-08T12:28:59.294Z,24.52
2018-04-08T12:29:59.501Z,24.94
2018-04-08T12:30:59.608Z,24.06
2018-04-08T12:31:59.297Z,24.07
2018-04-08T12:32:59.300Z,24.76
2018-04-08T12:33:59.493Z,24.17
2018-04-08T12:34:59.339Z,24.16
2018-04-08T12:36:59.704Z,26.06
2018-04-08T12:37:59.444Z,27.62
2018-04-08T12:38:59.309Z,27.33
2018-04-08T12:39:59.336Z,28.04
2018-04-08T12:40:59.338Z,26.79
2018-04-08T12:41:59.384Z,26.29
2018-04-08T12:42:59.697Z,28.14
2018-04-08T12:43:59.372Z,27.26
2018-04-08T12:44:59.321Z,25.60
2018-04-08T12:45:59.382Z,26.65
2018-04-08T12:46:59.347Z,28.29
2018-04-08T12:47:59.527Z,29.46
2018-04-08T12:48:59.429Z,30.36
2018-04-08T12:50:59.405Z,27.45
2018-04-08T12:51:59.708Z,26.89
2018-04-08T12:52:59.941Z,27.48
2018-04-08T12:53:59.358Z,25.93
2018-04-08T12:54:59.706Z,25.85
2018-04-08T12:55:59.351Z,25.70
2018-04-08T12:56:59.357Z,27.28
2018-04-08T12:57:59.363Z,27.79
2018-04-08T12:58:59.365Z,27.20
2018-04-08T12:59:59.370Z,25.84
2018-04-08T13:00:59.732Z,26.40
2018-04-08T13:01:59.621Z,25.34
2018-04-08T13:02:59.379Z,25.34
2018-04-08T13:03:59.381Z,25.25
2018-04-08T13:05:59.868Z,26.28
2018-04-08T13:06:59.845Z,27.31
2018-04-08T13:07:59.382Z,28.09
2018-04-08T13:08:59.403Z,27.39
2018-04-08T13:09:59.414Z,29.11
2018-04-08T13:10:59.407Z,29.12
2018-04-08T13:11:59.399Z,26.04
2018-04-08T13:12:59.751Z,26.51
2018-04-08T13:13:59.411Z,27.59
2018-04-08T13:14:59.584Z,28.02
2018-04-08T13:15:59.407Z,27.42
2018-04-08T13:16:59.424Z,28.11
2018-04-08T13:18:59.894Z,25.43
2018-04-08T13:19:59.408Z,25.43
2018-04-08T13:20:59.408Z,25.25
2018-04-08T13:21:59.482Z,25.74
2018-04-08T13:22:59.423Z,25.95
2018-04-08T13:23:59.427Z,25.74
2018-04-08T13:24:59.835Z,25.92
2018-04-08T13:25:59.526Z,26.78
2018-04-08T13:26:59.441Z,27.84